Eagan, Tennessee
Current Conditions -  °F | °C
As of 2:35 PM on Tuesday 21 Oct 2014 (Local Time) from K1A6 Reporting Station
Overcast Overcast  
Wind Chill: 64°   Ceiling: 5000
Heat Index: 64°   Visibility: 10mi
Dew Point: 44°   Wind: 10mph
Humidity: 48%   Direction: 360°N
Pressure: 30.01"   Gusts: 16mph
Location:  36.55°N, 83.98°W
Report Text: K1A6 211835Z AUTO 36009G14KT 10SM OVC050 18/07 A3001 RMK AO2 T01750065
Loading
Personal Weather Stations






























Interactive Weather Map
Tropical Storm Tracking
New forecast layout! Learn more

10-Day Weather Forecast

Advertisements
Track Severe Weather on mobile